Time;durP1;ratioP1;P1;durP2;ratioP2;P2;SDS_P1;SDS_P2;PMS_P1;PMS_P2;Temp;Humidity;BMP_temperature;BMP_pressure;BME280_temperature;BME280_humidity;BME280_pressure;Samples;Min_cycle;Max_cycle;Signal;HPM_P1;HPM_P2
2024/01/17 00:02:04;;;;;;;2.28;2.05;;;2.80;48.30;;;;;;4975039;28;20500;-82
2024/01/17 00:04:30;;;;;;;3.08;2.20;;;2.80;48.30;;;;;;4979014;28;20034;-84
2024/01/17 00:06:57;;;;;;;4.20;2.28;;;2.80;48.30;;;;;;4978720;28;20080;-83
2024/01/17 00:09:23;;;;;;;2.15;1.75;;;2.80;48.90;;;;;;4996844;28;20316;-83
2024/01/17 00:11:52;;;;;;;2.20;1.90;;;2.80;48.40;;;;;;4979779;28;20042;-85
2024/01/17 00:14:18;;;;;;;2.60;1.98;;;2.80;48.40;;;;;;4979807;28;20120;-82
2024/01/17 00:16:45;;;;;;;2.13;1.90;;;2.80;48.40;;;;;;4979759;28;20113;-81
2024/01/17 00:19:11;;;;;;;3.22;2.67;;;2.70;48.20;;;;;;4996739;28;20030;-82
2024/01/17 00:21:37;;;;;;;3.35;2.15;;;2.70;48.30;;;;;;4998267;28;20094;-83
2024/01/17 00:24:03;;;;;;;2.65;2.20;;;2.70;48.30;;;;;;4997130;28;20033;-82
2024/01/17 00:26:29;;;;;;;5.88;2.28;;;2.70;48.30;;;;;;5000778;28;20169;-79
2024/01/17 00:28:56;;;;;;;3.05;2.08;;;2.70;48.40;;;;;;4998379;28;20018;-83
2024/01/17 00:31:22;;;;;;;4.55;2.45;;;2.70;48.50;;;;;;4999686;28;20078;-84
2024/01/17 00:33:48;;;;;;;4.45;2.25;;;2.70;48.70;;;;;;4995958;28;20026;-85
2024/01/17 00:36:16;;;;;;;3.80;2.15;;;2.70;48.70;;;;;;4996515;28;20084;-83
2024/01/17 00:38:42;;;;;;;2.72;1.75;;;2.70;48.70;;;;;;4980576;28;20382;-84
2024/01/17 00:41:08;;;;;;;2.90;2.00;;;2.70;48.70;;;;;;4979206;28;20681;-84
2024/01/17 00:43:35;;;;;;;3.75;1.90;;;2.70;48.70;;;;;;4989476;28;20373;-81
2024/01/17 00:46:01;;;;;;;3.03;1.83;;;2.70;48.70;;;;;;4974758;28;20045;-81
2024/01/17 00:48:27;;;;;;;2.83;2.22;;;2.70;48.70;;;;;;4990070;28;20030;-81
2024/01/17 00:50:53;;;;;;;5.32;2.72;;;2.70;48.80;;;;;;4979347;28;20392;-81
2024/01/17 00:53:22;;;;;;;2.45;1.95;;;2.70;48.80;;;;;;4980920;28;20035;-81
2024/01/17 00:55:48;;;;;;;3.92;2.22;;;2.70;48.80;;;;;;4979235;28;20042;-82
2024/01/17 00:58:14;;;;;;;4.70;2.17;;;2.60;48.60;;;;;;4977372;28;20611;-81
2024/01/17 01:00:41;;;;;;;2.67;1.95;;;2.70;48.90;;;;;;4978077;28;20100;-82
2024/01/17 01:03:07;;;;;;;2.80;1.70;;;2.70;48.90;;;;;;4979968;28;20034;-82
2024/01/17 01:05:33;;;;;;;2.90;1.95;;;2.60;48.70;;;;;;4978656;28;20564;-82
2024/01/17 01:08:01;;;;;;;3.20;1.90;;;2.70;48.90;;;;;;4979272;28;20113;-81
2024/01/17 01:10:27;;;;;;;3.10;2.25;;;2.60;48.70;;;;;;4980093;28;20683;-82
2024/01/17 01:12:54;;;;;;;3.25;2.13;;;2.70;48.90;;;;;;4977338;28;20096;-82
2024/01/17 01:15:20;;;;;;;3.03;2.22;;;2.60;48.70;;;;;;4994902;28;20141;-83
2024/01/17 01:17:46;;;;;;;2.88;2.50;;;2.60;48.70;;;;;;4995246;28;20379;-82
2024/01/17 01:20:12;;;;;;;2.95;1.98;;;2.60;48.70;;;;;;4978528;28;20053;-82
2024/01/17 01:22:38;;;;;;;5.70;2.53;;;2.60;48.70;;;;;;4981047;28;20046;-82
2024/01/17 01:25:05;;;;;;;2.65;2.00;;;2.60;48.80;;;;;;4978855;28;20705;-82
2024/01/17 01:27:32;;;;;;;3.10;2.08;;;2.60;48.80;;;;;;4977287;28;20450;-83
2024/01/17 01:30:00;;;;;;;3.63;2.17;;;2.60;48.80;;;;;;4974301;28;20439;-82
2024/01/17 01:32:27;;;;;;;3.70;2.92;;;2.60;48.80;;;;;;4978402;28;20034;-82
2024/01/17 01:34:53;;;;;;;2.13;1.70;;;2.60;48.90;;;;;;4975658;28;20396;-81
2024/01/17 01:37:19;;;;;;;2.50;1.83;;;2.50;48.70;;;;;;4981178;28;20034;-81
2024/01/17 01:39:45;;;;;;;3.00;2.22;;;2.60;48.90;;;;;;4966955;28;20376;-84
2024/01/17 01:42:11;;;;;;;3.28;2.22;;;2.50;48.70;;;;;;4977396;28;20437;-83
2024/01/17 01:44:37;;;;;;;1.70;1.52;;;2.50;48.70;;;;;;4978865;28;20050;-83
2024/01/17 01:47:03;;;;;;;3.20;1.77;;;2.60;48.90;;;;;;4978307;28;20081;-82
2024/01/17 01:49:30;;;;;;;2.30;2.10;;;2.60;48.90;;;;;;4981601;28;20280;-83
2024/01/17 01:51:56;;;;;;;2.90;2.13;;;2.60;48.90;;;;;;4962646;28;20034;-83
2024/01/17 01:54:23;;;;;;;2.00;1.63;;;2.60;48.90;;;;;;4992144;28;20103;-82
2024/01/17 01:56:50;;;;;;;4.03;1.85;;;2.60;48.90;;;;;;4991158;28;20037;-82
2024/01/17 01:59:17;;;;;;;2.70;2.10;;;2.60;48.90;;;;;;4977611;28;20272;-83
2024/01/17 02:01:44;;;;;;;2.70;2.15;;;2.60;48.90;;;;;;4979800;28;20121;-81
2024/01/17 02:04:11;;;;;;;2.70;2.10;;;2.60;48.90;;;;;;4982405;28;20097;-81
2024/01/17 02:06:39;;;;;;;2.83;2.15;;;2.60;48.90;;;;;;4975077;28;20081;-82
2024/01/17 02:09:05;;;;;;;2.63;1.90;;;2.60;48.90;;;;;;4978380;28;20444;-82
2024/01/17 02:11:32;;;;;;;4.47;2.10;;;2.50;48.70;;;;;;4962419;28;20100;-81
2024/01/17 02:13:58;;;;;;;1.85;1.73;;;2.60;48.90;;;;;;4983632;28;20023;-83
2024/01/17 02:16:25;;;;;;;3.92;2.30;;;2.60;48.90;;;;;;4980241;28;20042;-82
2024/01/17 02:18:51;;;;;;;2.22;2.03;;;2.60;48.90;;;;;;4978567;28;20022;-82
2024/01/17 02:21:18;;;;;;;3.13;2.17;;;2.60;49.00;;;;;;4991427;28;20133;-82
2024/01/17 02:23:52;;;;;;;3.40;1.83;;;2.60;49.00;;;;;;4965241;28;20548;-81
2024/01/17 02:26:19;;;;;;;2.58;1.98;;;2.60;49.00;;;;;;4992265;28;20030;-82
2024/01/17 02:28:45;;;;;;;3.30;2.00;;;2.60;49.00;;;;;;4964713;28;20037;-82
2024/01/17 02:31:14;;;;;;;2.72;2.28;;;2.60;49.00;;;;;;4992950;28;20062;-82
2024/01/17 02:33:40;;;;;;;3.15;2.33;;;2.60;49.00;;;;;;4982208;28;20061;-83
2024/01/17 02:36:06;;;;;;;4.03;2.40;;;2.60;49.10;;;;;;4981152;28;20058;-82
2024/01/17 02:38:33;;;;;;;3.35;2.53;;;2.50;48.80;;;;;;4978811;28;20509;-82
2024/01/17 02:40:59;;;;;;;4.00;2.55;;;2.60;49.10;;;;;;4991777;28;20049;-83
2024/01/17 02:43:28;;;;;;;2.65;2.45;;;2.50;48.90;;;;;;4983671;28;20022;-84
2024/01/17 02:45:54;;;;;;;3.38;2.85;;;2.50;48.90;;;;;;4981843;28;20038;-83
2024/01/17 02:48:20;;;;;;;4.20;2.92;;;2.50;48.90;;;;;;4986385;28;20548;-84
2024/01/17 02:50:46;;;;;;;4.97;3.20;;;2.50;48.90;;;;;;4983318;28;20224;-83
2024/01/17 02:53:12;;;;;;;3.20;2.90;;;2.50;48.90;;;;;;4981032;28;20185;-84
2024/01/17 02:55:39;;;;;;;3.30;2.88;;;2.50;48.90;;;;;;4981670;28;20030;-82
2024/01/17 02:58:05;;;;;;;3.72;3.28;;;2.50;48.90;;;;;;4984660;28;20104;-83
2024/01/17 03:00:33;;;;;;;4.03;3.13;;;2.50;48.90;;;;;;4980256;28;20088;-82
2024/01/17 03:02:59;;;;;;;5.40;3.47;;;2.50;48.90;;;;;;4980768;28;20041;-81
2024/01/17 03:05:26;;;;;;;5.13;3.30;;;2.50;49.00;;;;;;4981938;28;20353;-81
2024/01/17 03:07:53;;;;;;;4.70;3.40;;;2.50;48.90;;;;;;4983406;28;20093;-82
2024/01/17 03:10:19;;;;;;;4.53;3.42;;;2.50;49.00;;;;;;4984465;28;20469;-80
2024/01/17 03:12:46;;;;;;;3.65;3.08;;;2.50;49.00;;;;;;4984491;28;20034;-81
2024/01/17 03:15:12;;;;;;;4.50;3.38;;;2.50;49.00;;;;;;4982658;28;20450;-79
2024/01/17 03:17:39;;;;;;;5.65;3.38;;;2.50;49.00;;;;;;4986007;28;20382;-80
2024/01/17 03:20:06;;;;;;;4.32;3.45;;;2.50;49.00;;;;;;4968440;28;20046;-81
2024/01/17 03:22:33;;;;;;;5.45;3.25;;;2.50;49.10;;;;;;4984113;28;20034;-81
2024/01/17 03:24:59;;;;;;;4.38;3.97;;;2.50;49.10;;;;;;4985968;28;20089;-81
2024/01/17 03:27:24;;;;;;;4.15;3.05;;;2.50;49.10;;;;;;4986025;28;20603;-81
2024/01/17 03:29:57;;;;;;;5.13;3.60;;;2.50;49.10;;;;;;4982396;28;20497;-82
2024/01/17 03:32:22;;;;;;;4.57;4.07;;;2.40;48.90;;;;;;4979174;28;20059;-82
2024/01/17 03:34:51;;;;;;;4.40;2.88;;;2.50;49.10;;;;;;4982474;28;20595;-81
2024/01/17 03:37:18;;;;;;;5.05;3.22;;;2.40;48.90;;;;;;4986136;28;20041;-81
2024/01/17 03:39:44;;;;;;;4.05;3.17;;;2.40;49.50;;;;;;4986334;28;20129;-82
2024/01/17 03:42:15;;;;;;;4.65;3.63;;;2.40;48.90;;;;;;4984251;28;20148;-81
2024/01/17 03:44:45;;;;;;;3.60;3.22;;;2.40;49.00;;;;;;4978617;28;20133;-82
2024/01/17 03:47:12;;;;;;;5.05;3.42;;;2.40;49.00;;;;;;4984425;28;20050;-82
2024/01/17 03:49:38;;;;;;;4.40;2.78;;;2.40;49.00;;;;;;4985988;28;20031;-81
2024/01/17 03:52:07;;;;;;;4.28;3.25;;;2.50;49.10;;;;;;4984135;28;20040;-81
2024/01/17 03:54:37;;;;;;;4.18;3.45;;;2.50;49.10;;;;;;4985382;28;20497;-82
2024/01/17 03:57:04;;;;;;;5.63;3.25;;;2.50;49.10;;;;;;4985877;28;20256;-81
2024/01/17 03:59:30;;;;;;;4.97;3.15;;;2.40;48.90;;;;;;4983279;28;20038;-82
2024/01/17 04:01:56;;;;;;;4.10;3.10;;;2.50;49.20;;;;;;4999790;28;20034;-81
2024/01/17 04:04:25;;;;;;;3.83;2.97;;;2.50;49.10;;;;;;4967300;28;20460;-79
2024/01/17 04:06:52;;;;;;;3.22;2.60;;;2.40;49.00;;;;;;4982641;28;20026;-81
2024/01/17 04:09:17;;;;;;;4.50;3.15;;;2.40;48.90;;;;;;4983457;28;20407;-80
2024/01/17 04:11:45;;;;;;;3.83;3.40;;;2.50;49.10;;;;;;4985677;28;20078;-81
2024/01/17 04:14:12;;;;;;;3.40;3.10;;;2.50;49.10;;;;;;4985938;28;20054;-80
2024/01/17 04:16:39;;;;;;;3.58;3.22;;;2.40;49.00;;;;;;4984210;28;20160;-82
2024/01/17 04:19:08;;;;;;;3.50;3.20;;;2.40;49.00;;;;;;4983091;28;20034;-79
2024/01/17 04:21:35;;;;;;;4.32;3.13;;;2.50;49.20;;;;;;4984564;28;20480;-80
2024/01/17 04:24:01;;;;;;;4.65;3.67;;;2.50;49.20;;;;;;4983983;28;20634;-78
2024/01/17 04:26:27;;;;;;;3.50;3.15;;;2.50;49.20;;;;;;4985555;28;20114;-79
2024/01/17 04:28:54;;;;;;;5.35;3.28;;;2.50;49.20;;;;;;4982974;28;20037;-79
2024/01/17 04:31:26;;;;;;;3.83;3.15;;;2.50;49.20;;;;;;4977991;28;20473;-79
2024/01/17 04:33:53;;;;;;;4.43;3.67;;;2.50;49.20;;;;;;4988651;28;20054;-79
2024/01/17 04:36:21;;;;;;;5.00;3.60;;;2.50;49.10;;;;;;4984552;28;20050;-80
2024/01/17 04:38:48;;;;;;;4.60;3.55;;;2.40;49.00;;;;;;4983594;28;20023;-81
2024/01/17 04:41:16;;;;;;;5.07;4.05;;;2.50;49.80;;;;;;4986355;28;20038;-81
2024/01/17 04:43:44;;;;;;;5.57;3.63;;;2.40;49.00;;;;;;4984526;28;20049;-82
2024/01/17 04:46:14;;;;;;;6.28;4.20;;;2.50;49.20;;;;;;4984881;28;20026;-83
2024/01/17 04:48:44;;;;;;;6.38;4.47;;;2.50;49.20;;;;;;4983361;28;20237;-85
2024/01/17 04:51:11;;;;;;;6.65;4.65;;;2.50;49.80;;;;;;4980797;28;20034;-85
2024/01/17 04:53:37;;;;;;;6.50;4.38;;;2.50;49.20;;;;;;4999419;28;20058;-85
2024/01/17 04:56:07;;;;;;;6.90;4.40;;;2.50;49.20;;;;;;4985494;28;20046;-85
2024/01/17 04:58:34;;;;;;;5.43;4.25;;;2.50;49.20;;;;;;4987892;28;20410;-84
2024/01/17 05:01:00;;;;;;;8.43;4.93;;;2.50;49.20;;;;;;4982935;28;20478;-84
2024/01/17 05:03:27;;;;;;;7.20;4.38;;;2.50;49.20;;;;;;4985852;28;20064;-84
2024/01/17 05:05:53;;;;;;;5.80;5.20;;;2.50;49.20;;;;;;4985415;28;20030;-84
2024/01/17 05:08:19;;;;;;;6.45;4.80;;;2.50;49.20;;;;;;4968147;28;20523;-84
2024/01/17 05:10:46;;;;;;;6.57;4.80;;;2.50;49.20;;;;;;4981121;28;20041;-84
2024/01/17 05:13:13;;;;;;;5.65;4.80;;;2.50;49.20;;;;;;4986064;28;20031;-82
2024/01/17 05:15:39;;;;;;;8.07;5.25;;;2.50;49.20;;;;;;4983967;28;20058;-84
2024/01/17 05:18:06;;;;;;;9.40;5.05;;;2.50;49.20;;;;;;4984388;28;20524;-85
2024/01/17 05:20:33;;;;;;;7.15;5.47;;;2.50;49.20;;;;;;4982938;28;20042;-85
2024/01/17 05:23:01;;;;;;;6.97;5.55;;;2.50;49.20;;;;;;4979765;28;20089;-86
2024/01/17 05:25:27;;;;;;;6.63;4.80;;;2.50;49.20;;;;;;4998002;28;20430;-86
2024/01/17 05:27:54;;;;;;;7.43;5.63;;;2.50;49.20;;;;;;4998483;28;20030;-86
2024/01/17 05:30:24;;;;;;;10.35;5.95;;;2.50;49.20;;;;;;4989516;28;20042;-84
2024/01/17 05:32:51;;;;;;;7.70;6.15;;;2.50;49.20;;;;;;4981175;28;20027;-83
2024/01/17 05:35:17;;;;;;;8.52;5.65;;;2.50;49.20;;;;;;4985356;28;20468;-87
2024/01/17 05:37:43;;;;;;;6.90;5.35;;;2.50;49.20;;;;;;4988232;28;20338;-83
2024/01/17 05:40:11;;;;;;;5.90;5.25;;;2.50;49.20;;;;;;4987688;28;20037;-82
2024/01/17 05:42:40;;;;;;;7.50;5.93;;;2.50;49.20;;;;;;4986536;28;20199;-81
2024/01/17 05:45:07;;;;;;;8.30;5.47;;;2.50;49.20;;;;;;4971030;28;20045;-82
2024/01/17 05:47:38;;;;;;;8.18;5.68;;;2.50;49.80;;;;;;4975364;28;20046;-80
2024/01/17 05:50:08;;;;;;;7.22;5.43;;;2.50;49.20;;;;;;4973237;28;20096;-80
2024/01/17 05:52:50;;;;;;;6.75;5.97;;;2.50;49.20;;;;;;4979821;28;20140;-80
2024/01/17 05:55:17;;;;;;;6.18;5.53;;;2.50;49.20;;;;;;4980440;28;20043;-79
2024/01/17 05:57:43;;;;;;;8.00;5.97;;;2.50;49.20;;;;;;4985233;28;20409;-80
2024/01/17 06:00:11;;;;;;;8.98;5.70;;;2.50;49.20;;;;;;4994779;28;20100;-80
2024/01/17 06:02:38;;;;;;;8.73;6.00;;;2.50;49.20;;;;;;4979387;28;20030;-79
2024/01/17 06:05:04;;;;;;;8.05;5.90;;;2.50;49.20;;;;;;4974829;28;20045;-82
2024/01/17 06:07:31;;;;;;;6.18;5.57;;;2.50;49.20;;;;;;4976593;28;20479;-83
2024/01/17 06:09:57;;;;;;;6.82;4.95;;;2.50;49.20;;;;;;4974740;28;20061;-80
2024/01/17 06:12:23;;;;;;;6.95;5.45;;;2.50;49.20;;;;;;4976423;28;20027;-80
2024/01/17 06:14:49;;;;;;;7.45;5.25;;;2.50;49.20;;;;;;4977359;28;20354;-80
2024/01/17 06:17:15;;;;;;;7.80;6.03;;;2.50;49.20;;;;;;4974461;28;20057;-83
2024/01/17 06:19:41;;;;;;;6.75;5.32;;;2.50;49.20;;;;;;4974940;28;20265;-85
2024/01/17 06:22:08;;;;;;;7.25;5.32;;;2.50;49.20;;;;;;4989590;28;20035;-82
2024/01/17 06:24:34;;;;;;;6.43;5.07;;;2.50;49.20;;;;;;4977009;28;20490;-83
2024/01/17 06:27:02;;;;;;;6.25;5.63;;;2.50;49.20;;;;;;4974636;28;20346;-81
2024/01/17 06:29:33;;;;;;;8.55;5.90;;;2.50;49.20;;;;;;4979512;28;20060;-83
2024/01/17 06:32:01;;;;;;;7.40;5.30;;;2.50;49.20;;;;;;4978932;28;20030;-82
2024/01/17 06:34:27;;;;;;;7.82;5.60;;;2.50;49.20;;;;;;4982623;28;20049;-81
2024/01/17 06:36:53;;;;;;;6.88;5.50;;;2.50;49.20;;;;;;4990593;28;20069;-85
2024/01/17 06:39:19;;;;;;;7.47;4.88;;;2.50;49.20;;;;;;4982924;28;20066;-82
2024/01/17 06:41:45;;;;;;;7.53;5.88;;;2.50;49.80;;;;;;4973479;28;20042;-81
2024/01/17 06:44:12;;;;;;;6.80;4.93;;;2.50;49.30;;;;;;4970021;28;20045;-84
2024/01/17 06:46:38;;;;;;;5.85;4.53;;;2.50;49.30;;;;;;4970354;28;20047;-84
2024/01/17 06:49:04;;;;;;;8.50;5.40;;;2.50;49.30;;;;;;4989678;28;20951;-84
2024/01/17 06:51:30;;;;;;;5.70;5.00;;;2.40;49.10;;;;;;4973027;28;20037;-84
2024/01/17 06:53:56;;;;;;;8.30;6.03;;;2.50;49.30;;;;;;4958414;28;20454;-84
2024/01/17 06:56:24;;;;;;;6.97;5.25;;;2.50;49.60;;;;;;4974865;28;20190;-85
2024/01/17 06:58:50;;;;;;;8.05;5.28;;;2.50;49.30;;;;;;4995543;28;20030;-80
2024/01/17 07:01:16;;;;;;;5.97;4.80;;;2.40;49.20;;;;;;4990468;28;20026;-79
2024/01/17 07:03:42;;;;;;;5.63;4.43;;;2.50;49.40;;;;;;4986511;28;20034;-81
2024/01/17 07:06:09;;;;;;;6.78;4.50;;;2.50;49.70;;;;;;4996351;28;20053;-80
2024/01/17 07:08:35;;;;;;;5.95;5.20;;;2.50;49.90;;;;;;4989035;28;20046;-80
2024/01/17 07:11:01;;;;;;;6.22;4.53;;;2.60;50.20;;;;;;4984583;28;20394;-79
2024/01/17 07:13:28;;;;;;;5.95;4.43;;;2.60;50.40;;;;;;4965772;28;20039;-80
2024/01/17 07:15:57;;;;;;;6.07;4.78;;;2.70;50.70;;;;;;4973377;28;20042;-80
2024/01/17 07:18:23;;;;;;;6.07;4.70;;;2.70;50.80;;;;;;4984903;28;20030;-82
2024/01/17 07:20:49;;;;;;;5.75;4.90;;;2.70;50.80;;;;;;4981864;28;20039;-79
2024/01/17 07:23:15;;;;;;;6.43;4.90;;;2.80;51.00;;;;;;4975311;28;20311;-78
2024/01/17 07:25:44;;;;;;;15.80;6.22;;;2.70;50.90;;;;;;4964177;28;20129;-79
2024/01/17 07:28:10;;;;;;;11.63;5.65;;;2.70;50.90;;;;;;4969502;28;20393;-84
2024/01/17 07:30:36;;;;;;;10.48;5.93;;;2.70;51.00;;;;;;4973870;28;20027;-78
2024/01/17 07:33:03;;;;;;;12.63;5.90;;;2.70;51.10;;;;;;4969862;28;20066;-87
2024/01/17 07:35:29;;;;;;;12.82;6.03;;;2.70;51.10;;;;;;4966806;28;20127;-81
2024/01/17 07:37:58;;;;;;;7.85;5.20;;;2.70;51.20;;;;;;4971792;28;20069;-80
2024/01/17 07:40:24;;;;;;;8.85;5.70;;;2.70;51.20;;;;;;4977015;28;20048;-79
2024/01/17 07:42:51;;;;;;;8.70;5.95;;;2.70;51.20;;;;;;4984312;28;20030;-79
2024/01/17 07:45:23;;;;;;;7.90;5.32;;;2.70;51.20;;;;;;4983073;28;20045;-81
2024/01/17 07:47:49;;;;;;;8.33;5.97;;;2.70;51.20;;;;;;4976263;28;20054;-80
2024/01/17 07:50:15;;;;;;;6.53;5.20;;;2.70;51.20;;;;;;4980393;28;20054;-80
2024/01/17 07:52:42;;;;;;;7.47;5.47;;;2.70;51.20;;;;;;4998987;28;20087;-78
2024/01/17 07:55:09;;;;;;;7.80;5.43;;;2.70;51.20;;;;;;4999730;28;20027;-80
2024/01/17 07:57:35;;;;;;;8.50;5.70;;;2.60;51.00;;;;;;4996420;28;20253;-81
2024/01/17 08:00:02;;;;;;;9.10;5.20;;;2.70;51.20;;;;;;4988456;28;20027;-80
2024/01/17 08:02:40;;;;;;;6.88;5.32;;;2.60;51.00;;;;;;4999049;28;20030;-82
2024/01/17 08:05:06;;;;;;;8.30;5.38;;;2.60;51.00;;;;;;4994345;28;20243;-80
2024/01/17 08:07:33;;;;;;;7.30;5.45;;;2.60;51.00;;;;;;5011802;28;20107;-80
2024/01/17 08:09:59;;;;;;;7.70;5.47;;;2.60;51.10;;;;;;4988646;28;20407;-80
2024/01/17 08:12:25;;;;;;;7.47;5.32;;;2.50;50.80;;;;;;4992089;28;20038;-80
2024/01/17 08:14:51;;;;;;;6.25;5.25;;;2.60;51.10;;;;;;4994195;28;20146;-79
2024/01/17 08:17:17;;;;;;;8.77;6.03;;;2.60;51.10;;;;;;4992508;28;20128;-82
2024/01/17 08:19:43;;;;;;;7.55;5.93;;;2.60;51.10;;;;;;5001150;28;20221;-80
2024/01/17 08:22:10;;;;;;;6.68;5.18;;;2.50;50.90;;;;;;4968188;28;20460;-79
2024/01/17 08:24:35;;;;;;;7.35;5.75;;;2.50;50.90;;;;;;4961636;28;20521;-80
2024/01/17 08:27:03;;;;;;;6.75;6.05;;;2.50;50.90;;;;;;4965781;28;20093;-80
2024/01/17 08:29:29;;;;;;;10.02;5.65;;;2.50;50.90;;;;;;4966939;28;20129;-79
2024/01/17 08:31:55;;;;;;;7.68;5.78;;;2.50;50.80;;;;;;4969742;28;20038;-79
2024/01/17 08:34:21;;;;;;;9.05;5.72;;;2.50;50.90;;;;;;4975188;28;20152;-78
2024/01/17 08:36:47;;;;;;;8.40;6.18;;;2.50;50.90;;;;;;4972082;28;20323;-82
2024/01/17 08:39:15;;;;;;;7.50;6.22;;;2.50;50.80;;;;;;4981311;28;20027;-80
2024/01/17 08:41:45;;;;;;;7.28;5.80;;;2.60;51.00;;;;;;4969723;28;20038;-81
2024/01/17 08:44:15;;;;;;;8.60;5.82;;;2.60;51.00;;;;;;4976620;28;20504;-80
2024/01/17 08:46:45;;;;;;;6.63;5.93;;;2.60;51.00;;;;;;4973423;28;20133;-81
2024/01/17 08:49:12;;;;;;;5.93;5.32;;;2.60;50.90;;;;;;4971233;28;20046;-81
2024/01/17 08:51:37;;;;;;;6.47;5.88;;;2.70;51.10;;;;;;4974287;28;20400;-80
2024/01/17 08:54:04;;;;;;;10.30;6.07;;;2.70;51.10;;;;;;4960424;28;20022;-80
2024/01/17 08:56:31;;;;;;;7.30;5.82;;;2.70;51.00;;;;;;4971796;28;20442;-81
2024/01/17 08:58:58;;;;;;;7.80;5.90;;;2.70;51.00;;;;;;4972284;28;20381;-81
2024/01/17 09:01:24;;;;;;;7.13;5.80;;;2.70;50.90;;;;;;4975528;28;20034;-81
2024/01/17 09:03:50;;;;;;;7.78;6.00;;;2.80;51.10;;;;;;4966991;28;20516;-81
2024/01/17 09:06:17;;;;;;;5.75;5.18;;;2.80;51.10;;;;;;4960152;28;20042;-82
2024/01/17 09:08:43;;;;;;;8.75;6.63;;;2.80;51.00;;;;;;4966735;28;20142;-81
2024/01/17 09:11:10;;;;;;;8.77;6.60;;;2.80;50.90;;;;;;4979639;28;20682;-80
2024/01/17 09:13:36;;;;;;;7.55;5.68;;;2.80;50.90;;;;;;4996900;28;20030;-81
2024/01/17 09:16:02;;;;;;;6.72;5.70;;;2.90;51.10;;;;;;4979523;28;20419;-81
2024/01/17 09:18:28;;;;;;;8.38;5.68;;;2.90;51.00;;;;;;4989672;28;20499;-81
2024/01/17 09:20:54;;;;;;;9.20;5.93;;;3.00;51.20;;;;;;4979827;28;21067;-80
2024/01/17 09:23:20;;;;;;;6.95;5.80;;;3.00;51.10;;;;;;4954066;28;20118;-81
2024/01/17 09:25:46;;;;;;;8.02;5.95;;;3.00;51.10;;;;;;4980035;28;20305;-81
2024/01/17 09:28:12;;;;;;;6.75;5.85;;;3.00;51.10;;;;;;4971397;28;20114;-83
2024/01/17 09:30:38;;;;;;;7.25;6.30;;;3.10;51.20;;;;;;4964932;28;20045;-81
2024/01/17 09:33:05;;;;;;;9.77;6.55;;;3.10;51.10;;;;;;4974008;28;20262;-81
2024/01/17 09:35:35;;;;;;;8.18;6.00;;;3.20;51.30;;;;;;4961663;28;20073;-81
2024/01/17 09:38:02;;;;;;;8.52;6.43;;;3.20;51.20;;;;;;4978512;28;20508;-81
2024/01/17 09:40:29;;;;;;;6.88;6.18;;;3.30;51.40;;;;;;4975309;28;20038;-82
2024/01/17 09:42:58;;;;;;;8.70;6.28;;;3.30;51.30;;;;;;4971460;28;20072;-82
2024/01/17 09:45:30;;;;;;;7.43;5.50;;;3.30;51.20;;;;;;4992764;28;20125;-84
2024/01/17 09:47:56;;;;;;;9.05;5.63;;;3.40;51.30;;;;;;4982238;28;20057;-78
2024/01/17 09:50:22;;;;;;;5.63;4.90;;;3.40;51.20;;;;;;4988400;28;20058;-81
2024/01/17 09:53:00;;;;;;;7.05;5.45;;;3.50;51.40;;;;;;4986148;28;20492;-80
2024/01/17 09:55:28;;;;;;;5.40;4.78;;;3.50;51.30;;;;;;4975211;28;20343;-79
2024/01/17 09:57:58;;;;;;;6.43;4.63;;;3.50;51.20;;;;;;4976486;28;20031;-79
2024/01/17 10:00:26;;;;;;;7.13;4.95;;;3.60;51.30;;;;;;4960214;28;20037;-80
2024/01/17 10:02:54;;;;;;;8.07;4.70;;;3.70;51.50;;;;;;4961863;28;20065;-80
2024/01/17 10:05:26;;;;;;;4.88;4.35;;;3.70;51.40;;;;;;4991867;28;20057;-81
2024/01/17 10:07:54;;;;;;;5.05;4.03;;;3.80;51.50;;;;;;4976065;28;20034;-80
2024/01/17 10:10:21;;;;;;;6.65;4.07;;;3.80;51.50;;;;;;4976193;28;20081;-81
2024/01/17 10:12:47;;;;;;;5.90;4.18;;;3.90;51.50;;;;;;4978565;28;20573;-80
2024/01/17 10:15:16;;;;;;;4.18;3.80;;;4.00;51.60;;;;;;4994412;28;20058;-79
2024/01/17 10:17:42;;;;;;;5.22;4.45;;;4.00;51.60;;;;;;4981001;28;20146;-79
2024/01/17 10:20:09;;;;;;;5.05;3.78;;;4.00;51.50;;;;;;4974669;28;20557;-80
2024/01/17 10:22:38;;;;;;;6.63;4.47;;;4.10;51.60;;;;;;4977102;28;20169;-80
2024/01/17 10:25:05;;;;;;;4.68;3.95;;;4.20;51.70;;;;;;4994369;28;20122;-78
2024/01/17 10:27:33;;;;;;;5.53;4.07;;;4.20;51.60;;;;;;4976395;28;20101;-80
2024/01/17 10:30:00;;;;;;;4.43;3.72;;;4.30;51.70;;;;;;4991575;28;20555;-81
2024/01/17 10:32:28;;;;;;;3.65;3.22;;;4.40;51.80;;;;;;4984942;28;20517;-81
2024/01/17 10:34:55;;;;;;;7.35;4.22;;;4.40;51.60;;;;;;4986918;28;20045;-79
2024/01/17 10:37:21;;;;;;;6.32;3.80;;;4.50;51.70;;;;;;4978544;28;20030;-82
2024/01/17 10:40:11;;;;;;;5.70;3.83;;;4.60;51.90;;;;;;4978550;28;20030;-80
2024/01/17 10:42:40;;;;;;;7.65;4.18;;;4.70;52.20;;;;;;4983587;28;20030;-78
2024/01/17 10:45:08;;;;;;;4.97;4.32;;;4.80;52.30;;;;;;4980008;28;20485;-79
2024/01/17 10:47:34;;;;;;;4.80;3.55;;;4.90;52.50;;;;;;4978753;28;20054;-80
2024/01/17 10:50:00;;;;;;;5.43;3.38;;;5.00;52.70;;;;;;4968849;28;20045;-81
2024/01/17 10:52:36;;;;;;;7.10;4.40;;;5.10;52.90;;;;;;4975656;28;20114;-79
2024/01/17 10:55:05;;;;;;;5.15;4.05;;;5.30;53.30;;;;;;4967366;28;20046;-79
2024/01/17 10:57:32;;;;;;;5.97;4.55;;;5.40;53.30;;;;;;4973805;28;20045;-80
2024/01/17 11:00:03;;;;;;;6.13;4.70;;;5.50;53.50;;;;;;4973482;28;20105;-81
2024/01/17 11:02:31;;;;;;;5.80;4.40;;;5.70;53.80;;;;;;4976689;28;20035;-81
2024/01/17 11:05:07;;;;;;;7.82;4.68;;;5.80;53.80;;;;;;4977816;28;20458;-81
2024/01/17 11:07:35;;;;;;;6.60;4.85;;;5.90;54.00;;;;;;4979292;28;20045;-81
2024/01/17 11:10:05;;;;;;;5.82;5.18;;;6.00;54.20;;;;;;4972079;28;20087;-81
2024/01/17 11:12:33;;;;;;;6.85;5.13;;;6.00;54.10;;;;;;4992205;28;20047;-81
2024/01/17 11:15:03;;;;;;;8.40;4.75;;;6.10;54.20;;;;;;4979718;28;20099;-81
2024/01/17 11:17:35;;;;;;;7.10;5.55;;;6.20;54.30;;;;;;4978511;28;20049;-81
2024/01/17 11:20:08;;;;;;;6.85;4.70;;;6.30;54.40;;;;;;4975349;28;20054;-81
2024/01/17 11:22:38;;;;;;;8.43;5.70;;;6.30;54.40;;;;;;4971638;28;21108;-79
2024/01/17 11:25:14;;;;;;;6.45;5.13;;;6.40;54.60;;;;;;4964252;28;20042;-79
2024/01/17 11:27:59;;;;;;;6.47;4.93;;;6.40;54.50;;;;;;4966008;28;20274;-79
2024/01/17 11:30:28;;;;;;;6.20;4.97;;;6.40;54.50;;;;;;4974707;28;20556;-80
2024/01/17 11:33:13;;;;;;;6.03;5.43;;;6.50;54.70;;;;;;4965371;28;20038;-80
2024/01/17 11:35:48;;;;;;;7.07;5.07;;;6.50;54.80;;;;;;4978811;28;20180;-80
2024/01/17 11:38:35;;;;;;;6.78;5.75;;;6.50;54.70;;;;;;4978912;28;20453;-80
2024/01/17 11:41:09;;;;;;;6.90;5.43;;;6.60;54.90;;;;;;4970965;28;20116;-80
2024/01/17 11:43:41;;;;;;;7.78;5.95;;;6.60;54.90;;;;;;4975631;28;20062;-79
2024/01/17 11:46:09;;;;;;;8.00;5.18;;;6.70;55.00;;;;;;4974181;28;20433;-81
2024/01/17 11:48:38;;;;;;;6.53;5.93;;;6.70;55.00;;;;;;4968561;28;20125;-80
2024/01/17 11:51:15;;;;;;;8.13;5.45;;;6.80;55.10;;;;;;4972088;28;20093;-81
2024/01/17 11:53:43;;;;;;;6.40;5.70;;;6.80;55.10;;;;;;4970749;28;20026;-81
2024/01/17 11:56:12;;;;;;;6.78;6.00;;;6.80;55.00;;;;;;4979070;28;20193;-80
2024/01/17 11:58:46;;;;;;;9.25;6.18;;;6.80;55.50;;;;;;4959778;28;20461;-81
2024/01/17 12:01:22;;;;;;;8.85;6.80;;;6.90;55.10;;;;;;4974182;28;20312;-82
2024/01/17 12:03:51;;;;;;;6.97;6.25;;;6.90;55.00;;;;;;4987648;28;20569;-80
2024/01/17 12:06:20;;;;;;;7.85;6.68;;;7.00;55.20;;;;;;5000168;28;20034;-79
2024/01/17 12:08:46;;;;;;;8.70;7.47;;;7.00;55.10;;;;;;4975734;28;20027;-80
2024/01/17 12:11:13;;;;;;;8.32;6.43;;;7.00;55.10;;;;;;4969396;28;20036;-80
2024/01/17 12:13:39;;;;;;;8.15;6.63;;;7.00;55.60;;;;;;4978807;28;20252;-79
2024/01/17 12:16:06;;;;;;;9.43;7.20;;;7.00;55.00;;;;;;4975855;28;20042;-80
2024/01/17 12:18:35;;;;;;;9.90;7.10;;;7.10;55.10;;;;;;4972270;28;20454;-80
2024/01/17 12:21:02;;;;;;;8.02;7.20;;;7.10;55.10;;;;;;4990199;28;20142;-81
2024/01/17 12:23:33;;;;;;;8.48;6.93;;;7.10;55.00;;;;;;4975440;28;20031;-81
2024/01/17 12:25:59;;;;;;;8.68;7.78;;;7.20;55.70;;;;;;4964521;28;20042;-79
2024/01/17 12:28:28;;;;;;;8.07;7.28;;;7.20;55.10;;;;;;4967779;28;20030;-80
2024/01/17 12:31:00;;;;;;;9.40;7.57;;;7.30;55.20;;;;;;4974356;28;20042;-80
2024/01/17 12:33:27;;;;;;;9.73;7.97;;;7.30;55.10;;;;;;4976353;28;20133;-80
2024/01/17 12:35:55;;;;;;;7.80;7.10;;;7.30;55.00;;;;;;4979557;28;20049;-86
2024/01/17 12:38:21;;;;;;;6.90;5.57;;;7.40;55.10;;;;;;4977535;28;20341;-80
2024/01/17 12:40:49;;;;;;;6.82;5.80;;;7.50;55.40;;;;;;4973823;28;20497;-83
2024/01/17 12:43:17;;;;;;;7.40;6.03;;;7.60;55.70;;;;;;4979609;28;20043;-80
2024/01/17 12:45:46;;;;;;;9.65;7.03;;;7.90;56.20;;;;;;4977301;28;20319;-79
2024/01/17 12:48:14;;;;;;;8.73;7.78;;;8.10;56.00;;;;;;4978524;28;20466;-80
2024/01/17 12:50:48;;;;;;;8.68;7.78;;;8.30;55.90;;;;;;4976554;28;20517;-80
2024/01/17 12:53:19;;;;;;;9.02;8.10;;;8.40;55.60;;;;;;4970935;28;20061;-81
2024/01/17 12:55:46;;;;;;;7.95;7.10;;;8.50;55.40;;;;;;4978366;28;20089;-81
2024/01/17 12:58:14;;;;;;;7.97;7.15;;;8.50;55.20;;;;;;4976236;28;20299;-80
2024/01/17 13:00:40;;;;;;;9.52;7.72;;;8.60;55.20;;;;;;4967790;28;20104;-80